Time;durP1;ratioP1;P1;durP2;ratioP2;P2;SDS_P1;SDS_P2;PMS_P1;PMS_P2;Temp;Humidity;BMP_temperature;BMP_pressure;BME280_temperature;BME280_humidity;BME280_pressure;Samples;Min_cycle;Max_cycle;Signal;HPM_P1;HPM_P2
2021/03/28 00:05:27;;;;;;;3.33;1.70;;;18.00;53.70;;;;;;10491966;28;20221;-20
2021/03/28 00:10:52;;;;;;;3.50;1.60;;;17.90;53.70;;;;;;10488621;28;20270;-18
2021/03/28 00:16:15;;;;;;;3.97;1.50;;;17.90;53.80;;;;;;10454002;28;20221;-21
2021/03/28 00:21:48;;;;;;;3.17;1.47;;;17.90;53.70;;;;;;10451416;28;20315;-20
2021/03/28 00:27:19;;;;;;;3.73;1.83;;;17.90;53.60;;;;;;10450935;28;20232;-21
2021/03/28 00:32:44;;;;;;;3.20;1.43;;;17.90;53.70;;;;;;10465593;28;20213;-21
2021/03/28 00:38:12;;;;;;;3.23;1.70;;;17.90;53.60;;;;;;10471559;28;20224;-21
2021/03/28 00:43:44;;;;;;;3.07;1.50;;;17.90;53.50;;;;;;10479727;28;20193;-21
2021/03/28 00:49:08;;;;;;;4.27;1.97;;;17.90;53.50;;;;;;10498301;28;20221;-21
2021/03/28 00:54:42;;;;;;;3.67;1.73;;;17.90;53.50;;;;;;10498338;28;20224;-22
2021/03/28 01:00:30;;;;;;;3.93;1.47;;;17.80;53.60;;;;;;10498157;28;20203;-23
2021/03/28 01:05:53;;;;;;;3.30;1.60;;;17.80;53.40;;;;;;10497137;28;20231;-21
2021/03/28 01:11:25;;;;;;;3.70;1.67;;;17.90;53.70;;;;;;10495822;28;20216;-21
2021/03/28 01:17:30;;;;;;;3.03;1.40;;;17.80;53.70;;;;;;10493431;28;20717;-16
2021/03/28 01:23:09;;;;;;;2.90;1.30;;;17.80;53.40;;;;;;10471587;28;20656;-21
2021/03/28 01:28:40;;;;;;;2.93;1.50;;;17.80;53.50;;;;;;10455531;28;20216;-21
2021/03/28 01:34:16;;;;;;;4.23;1.50;;;17.80;53.60;;;;;;10456473;28;20242;-21
2021/03/28 01:39:46;;;;;;;3.90;1.70;;;17.80;53.70;;;;;;10494446;28;20192;-19
2021/03/28 01:45:18;;;;;;;4.40;1.60;;;17.80;53.60;;;;;;10458819;28;20217;-21
2021/03/28 01:51:01;;;;;;;2.83;1.30;;;17.80;53.60;;;;;;10455848;28;20217;-20
2021/03/28 01:56:30;;;;;;;3.23;1.80;;;17.80;53.50;;;;;;10491592;28;20235;-21
2021/03/28 02:01:59;;;;;;;3.17;1.43;;;17.80;53.50;;;;;;10494897;28;20192;-21
2021/03/28 02:07:39;;;;;;;3.77;1.50;;;17.70;53.50;;;;;;10454159;28;20716;-21
2021/03/28 02:13:13;;;;;;;3.20;1.67;;;17.70;53.40;;;;;;10455033;28;20588;-22
2021/03/28 02:18:51;;;;;;;4.47;1.63;;;17.70;53.50;;;;;;10475600;28;20204;-28
2021/03/28 02:24:17;;;;;;;2.43;1.27;;;17.80;53.60;;;;;;10494660;28;20220;-21
2021/03/28 02:29:48;;;;;;;3.03;1.20;;;17.70;53.50;;;;;;10495587;28;20212;-21
2021/03/28 02:35:35;;;;;;;3.33;1.50;;;17.70;53.50;;;;;;10495342;28;20208;-21
2021/03/28 02:41:07;;;;;;;2.33;1.37;;;17.70;53.40;;;;;;10493205;28;20192;-21
2021/03/28 02:46:45;;;;;;;4.30;1.70;;;17.70;53.40;;;;;;10494766;28;20239;-21
2021/03/28 02:52:19;;;;;;;2.87;1.37;;;17.70;53.30;;;;;;10494424;28;20224;-22
2021/03/28 02:57:48;;;;;;;2.80;1.37;;;17.70;53.40;;;;;;10493937;28;20227;-21
2021/03/28 03:03:30;;;;;;;2.80;1.37;;;17.70;53.50;;;;;;10480723;28;20224;-22
2021/03/28 03:09:01;;;;;;;2.63;1.17;;;17.70;53.50;;;;;;10469567;28;20212;-20
2021/03/28 03:15:05;;;;;;;3.50;1.57;;;17.60;53.30;;;;;;10494409;28;20224;-21
2021/03/28 03:21:06;;;;;;;4.43;1.60;;;17.70;53.40;;;;;;10285077;28;20200;-21
2021/03/28 03:27:02;;;;;;;3.77;1.40;;;17.70;53.30;;;;;;10490162;28;20308;-21
2021/03/28 03:33:04;;;;;;;2.67;1.33;;;17.60;53.30;;;;;;10452292;28;20209;-18
2021/03/28 03:39:03;;;;;;;2.67;1.23;;;17.70;53.50;;;;;;10480595;28;20641;-22
2021/03/28 03:44:39;;;;;;;3.90;1.50;;;17.60;53.40;;;;;;10455143;28;20213;-21
2021/03/28 03:50:14;;;;;;;2.90;1.40;;;17.60;53.50;;;;;;10451625;28;20224;-21
2021/03/28 03:55:41;;;;;;;3.43;1.30;;;17.60;54.00;;;;;;10498703;22;20286;-24
2021/03/28 04:01:18;;;;;;;3.10;1.20;;;17.60;53.50;;;;;;10557722;28;20187;-22
2021/03/28 04:07:07;;;;;;;3.90;1.30;;;17.60;53.30;;;;;;10549675;28;20564;-23
2021/03/28 04:13:08;;;;;;;3.77;1.10;;;17.60;53.40;;;;;;10538450;28;20203;-24
2021/03/28 04:18:44;;;;;;;4.33;1.70;;;17.60;53.50;;;;;;10540822;28;20227;-23
2021/03/28 04:24:27;;;;;;;2.60;1.10;;;17.60;53.20;;;;;;10541612;28;20192;-24
2021/03/28 04:29:51;;;;;;;3.30;1.57;;;17.60;53.20;;;;;;10540500;28;20226;-24
2021/03/28 04:35:37;;;;;;;4.67;1.50;;;17.60;53.30;;;;;;10544681;27;20305;-23
2021/03/28 04:41:06;;;;;;;4.17;1.60;;;17.60;53.40;;;;;;10621039;27;20205;-23
2021/03/28 04:47:28;;;;;;;2.13;1.10;;;17.60;53.20;;;;;;10582936;28;20219;-24
2021/03/28 04:53:32;;;;;;;3.13;1.30;;;17.60;53.30;;;;;;10477699;28;20215;-24
2021/03/28 04:59:28;;;;;;;2.37;1.47;;;17.60;53.20;;;;;;10582563;28;20218;-24
2021/03/28 05:05:07;;;;;;;3.10;1.47;;;17.60;53.40;;;;;;10564393;28;20216;-23
2021/03/28 05:10:54;;;;;;;2.60;1.17;;;17.60;53.30;;;;;;10540191;28;20219;-24
2021/03/28 05:16:48;;;;;;;2.43;1.17;;;17.60;53.20;;;;;;10540737;28;20223;-24
2021/03/28 05:22:36;;;;;;;3.83;1.53;;;17.60;53.20;;;;;;10518335;28;20195;-22
2021/03/28 05:28:26;;;;;;;2.47;1.20;;;17.60;53.10;;;;;;10539817;28;20583;-22
2021/03/28 05:34:22;;;;;;;2.57;1.43;;;17.60;53.10;;;;;;10539121;28;20196;-24
2021/03/28 05:40:03;;;;;;;2.20;1.23;;;17.60;53.00;;;;;;10493082;28;20578;-25
2021/03/28 05:45:42;;;;;;;3.37;1.43;;;17.60;53.10;;;;;;10578896;28;20211;-24
2021/03/28 05:51:28;;;;;;;3.77;1.43;;;17.60;53.10;;;;;;10580312;28;20698;-23
2021/03/28 05:57:19;;;;;;;2.70;1.07;;;17.60;53.10;;;;;;10580768;28;20226;-22
2021/03/28 06:03:17;;;;;;;3.47;1.60;;;17.60;53.10;;;;;;10581086;27;20194;-24
2021/03/28 06:09:29;;;;;;;2.97;1.60;;;17.60;53.10;;;;;;10539587;28;20235;-23
2021/03/28 06:15:09;;;;;;;4.17;1.23;;;17.60;53.10;;;;;;10551943;28;20218;-23
2021/03/28 06:20:54;;;;;;;2.03;1.37;;;17.60;53.00;;;;;;10579557;28;20666;-23
2021/03/28 06:27:01;;;;;;;1.80;1.10;;;17.60;53.10;;;;;;10579602;28;20222;-23
2021/03/28 06:32:55;;;;;;;3.73;1.63;;;17.60;53.00;;;;;;10578438;28;20207;-26
2021/03/28 06:38:59;;;;;;;2.27;1.17;;;17.60;53.00;;;;;;10601796;27;20690;-23
2021/03/28 06:44:48;;;;;;;2.00;1.30;;;17.60;53.00;;;;;;10589724;27;20237;-23
2021/03/28 06:50:50;;;;;;;3.33;1.30;;;17.60;53.20;;;;;;10576969;28;20693;-25
2021/03/28 06:56:47;;;;;;;3.40;1.30;;;17.60;53.10;;;;;;10578038;28;20218;-23
2021/03/28 07:02:45;;;;;;;3.57;1.30;;;17.60;53.00;;;;;;10577777;28;20191;-21
2021/03/28 07:08:24;;;;;;;2.97;1.40;;;17.70;53.10;;;;;;10560985;28;20235;-22
2021/03/28 07:14:21;;;;;;;2.90;1.10;;;17.60;53.00;;;;;;10576257;28;20195;-25
2021/03/28 07:20:21;;;;;;;2.13;1.10;;;17.60;53.00;;;;;;10557776;28;20218;-23
2021/03/28 07:25:49;;;;;;;3.00;1.10;;;17.70;53.20;;;;;;10576794;28;20208;-24
2021/03/28 07:31:33;;;;;;;1.90;1.10;;;17.60;53.30;;;;;;10575816;28;20217;-24
2021/03/28 07:37:42;;;;;;;1.73;1.10;;;17.60;53.30;;;;;;10576111;28;20203;-24
2021/03/28 07:43:29;;;;;;;2.93;1.50;;;17.60;53.40;;;;;;10576398;28;20194;-25
2021/03/28 07:49:36;;;;;;;3.57;1.60;;;17.60;53.40;;;;;;10584961;28;20712;-23
2021/03/28 07:55:25;;;;;;;4.37;1.80;;;17.60;53.60;;;;;;10584520;28;20226;-24
2021/03/28 08:01:11;;;;;;;3.10;1.63;;;17.70;53.70;;;;;;10584679;28;20191;-23
2021/03/28 08:06:47;;;;;;;3.13;1.80;;;17.70;53.70;;;;;;10582757;28;20698;-24
2021/03/28 08:12:25;;;;;;;3.10;1.83;;;17.80;53.60;;;;;;10578493;28;20714;-21
2021/03/28 08:17:56;;;;;;;5.13;1.90;;;17.80;53.60;;;;;;10578282;27;20582;-22
2021/03/28 08:23:51;;;;;;;1.83;1.30;;;17.80;53.60;;;;;;10582500;28;20192;-24
2021/03/28 08:29:27;;;;;;;3.47;2.13;;;17.80;53.60;;;;;;10579956;28;20211;-23
2021/03/28 08:35:20;;;;;;;3.27;1.60;;;17.80;53.90;;;;;;10583394;28;20211;-23
2021/03/28 08:41:04;;;;;;;3.90;1.97;;;17.70;54.00;;;;;;10540551;28;20184;-23
2021/03/28 08:46:53;;;;;;;4.83;2.13;;;17.70;54.00;;;;;;10583327;28;20241;-24
2021/03/28 08:52:56;;;;;;;2.80;1.80;;;17.70;54.10;;;;;;10557994;28;20222;-22
2021/03/28 08:58:21;;;;;;;4.07;1.80;;;17.80;54.10;;;;;;10581543;28;20219;-24
2021/03/28 09:03:56;;;;;;;3.50;2.07;;;17.70;54.00;;;;;;10580032;28;20666;-23
2021/03/28 09:09:33;;;;;;;4.63;2.47;;;17.70;54.20;;;;;;10577983;28;20221;-22
2021/03/28 09:15:12;;;;;;;5.23;2.17;;;17.60;54.30;;;;;;10580118;28;20590;-21
2021/03/28 09:20:53;;;;;;;4.10;1.93;;;17.60;54.40;;;;;;10580792;28;20187;-23
2021/03/28 09:26:29;;;;;;;3.00;1.97;;;17.60;54.50;;;;;;10556079;28;20958;-23
2021/03/28 09:32:01;;;;;;;4.13;2.00;;;17.60;54.60;;;;;;10538834;28;20594;-23
2021/03/28 09:37:28;;;;;;;8.03;2.20;;;17.50;54.60;;;;;;10539949;28;20212;-21
2021/03/28 09:43:14;;;;;;;4.10;2.17;;;17.60;54.30;;;;;;10556343;28;20183;-22
2021/03/28 09:49:18;;;;;;;9.70;2.70;;;17.50;54.70;;;;;;10578250;28;20425;-24
2021/03/28 09:55:16;;;;;;;2.97;1.97;;;18.00;53.50;;;;;;10579016;28;20203;-22
2021/03/28 10:00:52;;;;;;;4.83;2.07;;;17.70;54.30;;;;;;10504015;22;20239;-21
2021/03/28 10:06:17;;;;;;;3.93;2.10;;;17.60;54.70;;;;;;10484914;28;20192;-22
2021/03/28 10:11:47;;;;;;;5.13;2.40;;;17.60;54.80;;;;;;10493277;28;20220;-20
2021/03/28 10:17:36;;;;;;;4.10;2.43;;;17.60;54.80;;;;;;10494720;28;20244;-21
2021/03/28 10:23:12;;;;;;;4.37;2.53;;;17.60;54.80;;;;;;10494160;28;20188;-21
2021/03/28 10:28:55;;;;;;;3.97;2.57;;;17.60;54.90;;;;;;10494607;28;20239;-22
2021/03/28 10:35:04;;;;;;;4.33;2.30;;;17.60;54.90;;;;;;10494564;28;20246;-20
2021/03/28 10:40:38;;;;;;;3.80;2.30;;;17.60;55.00;;;;;;10453287;28;20205;-21
2021/03/28 10:46:46;;;;;;;4.07;2.43;;;17.60;55.10;;;;;;10453058;28;20773;-20
2021/03/28 10:52:33;;;;;;;5.53;2.70;;;17.60;55.00;;;;;;10453083;28;20305;-22
2021/03/28 10:58:28;;;;;;;3.73;2.30;;;17.60;55.10;;;;;;10451648;28;20589;-22
2021/03/28 11:04:11;;;;;;;3.30;2.23;;;17.50;55.10;;;;;;10435383;28;20271;-21
2021/03/28 11:09:55;;;;;;;3.83;2.40;;;17.50;55.00;;;;;;10481111;28;20209;-18
2021/03/28 11:15:43;;;;;;;2.87;1.93;;;17.50;55.10;;;;;;10452006;28;20746;-19
2021/03/28 11:21:21;;;;;;;3.63;2.10;;;17.50;55.20;;;;;;10451822;28;20296;-22
2021/03/28 11:27:11;;;;;;;5.50;2.10;;;17.50;55.20;;;;;;10451676;28;20570;-18
2021/03/28 11:33:00;;;;;;;4.67;2.20;;;17.60;55.20;;;;;;10449342;28;20232;-20
2021/03/28 11:38:39;;;;;;;4.47;2.10;;;17.50;55.20;;;;;;10481505;28;20228;-22
2021/03/28 11:44:17;;;;;;;2.47;1.90;;;17.50;55.20;;;;;;10453307;28;20576;-21
2021/03/28 11:49:55;;;;;;;3.83;2.30;;;17.60;55.20;;;;;;10446256;28;20216;-23
2021/03/28 11:55:32;;;;;;;3.10;2.30;;;17.60;55.20;;;;;;10448948;28;20201;-22
2021/03/28 12:00:56;;;;;;;3.07;1.97;;;17.60;55.30;;;;;;10455656;28;20275;-21
2021/03/28 12:06:48;;;;;;;3.83;2.27;;;17.50;55.30;;;;;;10482794;28;20215;-20
2021/03/28 12:12:21;;;;;;;3.40;2.07;;;17.50;55.30;;;;;;10486291;28;20304;-20
2021/03/28 12:17:43;;;;;;;3.27;2.33;;;17.50;55.30;;;;;;10485001;28;20260;-20
2021/03/28 12:23:21;;;;;;;3.13;2.13;;;17.50;55.40;;;;;;10485599;28;20204;-20
2021/03/28 12:28:51;;;;;;;3.30;2.33;;;17.50;55.40;;;;;;10485951;28;20227;-20
2021/03/28 12:34:24;;;;;;;3.23;2.10;;;17.50;55.40;;;;;;10496773;28;20598;-19
2021/03/28 12:40:01;;;;;;;3.27;2.23;;;17.50;55.30;;;;;;10458262;28;20619;-19
2021/03/28 12:45:38;;;;;;;4.03;2.20;;;17.50;55.40;;;;;;10495284;28;20192;-21
2021/03/28 12:51:01;;;;;;;4.03;2.33;;;17.50;55.50;;;;;;10499232;28;20274;-25
2021/03/28 12:56:29;;;;;;;3.57;2.10;;;17.50;55.50;;;;;;10497784;28;20200;-20
2021/03/28 13:01:51;;;;;;;4.07;2.00;;;17.50;55.50;;;;;;10494992;28;20242;-19
2021/03/28 13:07:32;;;;;;;3.70;1.83;;;17.50;55.60;;;;;;10498797;28;20774;-20
2021/03/28 13:12:58;;;;;;;3.33;1.87;;;17.50;55.50;;;;;;10497544;28;20213;-21
2021/03/28 13:18:24;;;;;;;3.50;1.97;;;17.50;55.40;;;;;;10498375;28;20703;-20
2021/03/28 13:23:57;;;;;;;3.20;1.63;;;17.50;55.40;;;;;;10497727;28;20192;-21
2021/03/28 13:29:36;;;;;;;2.83;1.67;;;17.50;55.50;;;;;;10496627;28;20216;-18
2021/03/28 13:34:59;;;;;;;3.73;2.10;;;17.50;55.60;;;;;;10497072;28;20193;-20
2021/03/28 13:40:27;;;;;;;2.97;2.03;;;17.50;55.60;;;;;;10457257;28;20220;-20
2021/03/28 13:45:51;;;;;;;2.83;2.13;;;17.50;55.70;;;;;;10476986;28;20254;-19
2021/03/28 13:51:19;;;;;;;7.53;2.47;;;17.50;55.60;;;;;;10482462;28;20220;-20
2021/03/28 13:56:47;;;;;;;3.40;2.40;;;17.50;55.70;;;;;;10488869;28;20197;-20
2021/03/28 14:02:21;;;;;;;5.87;3.07;;;17.50;55.70;;;;;;10467694;28;20185;-24
2021/03/28 14:07:52;;;;;;;4.53;2.80;;;17.50;55.70;;;;;;10468298;28;20213;-20
2021/03/28 14:13:20;;;;;;;6.47;3.00;;;17.50;55.70;;;;;;10470669;28;20224;-21
2021/03/28 14:18:45;;;;;;;6.77;3.40;;;17.50;56.40;;;;;;10473633;28;20626;-21
2021/03/28 14:24:28;;;;;;;6.87;3.40;;;17.50;55.90;;;;;;10472899;28;20186;-20
2021/03/28 14:29:59;;;;;;;4.97;2.67;;;17.50;55.80;;;;;;10473423;28;20259;-22
2021/03/28 14:35:44;;;;;;;8.67;3.33;;;17.50;55.90;;;;;;10463352;28;20189;-21
2021/03/28 14:41:22;;;;;;;5.27;3.00;;;17.50;55.90;;;;;;10489030;28;20716;-21
2021/03/28 14:46:51;;;;;;;5.50;3.20;;;17.50;55.90;;;;;;10452233;28;20567;-20
2021/03/28 14:52:52;;;;;;;5.77;2.90;;;17.50;55.90;;;;;;10452584;28;20216;-20
2021/03/28 14:58:28;;;;;;;4.17;2.67;;;17.50;56.00;;;;;;10285046;28;20235;-20
2021/03/28 15:04:28;;;;;;;5.50;3.10;;;17.50;56.10;;;;;;10442172;28;20196;-20
2021/03/28 15:09:58;;;;;;;4.73;2.90;;;17.50;56.10;;;;;;10434755;28;20217;-21
2021/03/28 15:15:28;;;;;;;4.77;3.10;;;17.50;56.10;;;;;;10450099;28;20232;-23
2021/03/28 15:20:57;;;;;;;4.20;2.73;;;17.50;56.10;;;;;;10451350;28;20214;-21
2021/03/28 15:26:43;;;;;;;4.83;2.90;;;17.50;56.20;;;;;;10452153;28;20672;-21
2021/03/28 15:32:28;;;;;;;5.47;2.83;;;17.50;56.10;;;;;;10451036;28;20220;-20
2021/03/28 15:38:07;;;;;;;5.37;3.03;;;17.50;56.20;;;;;;10474218;28;20220;-20
2021/03/28 15:43:45;;;;;;;5.87;3.00;;;17.50;56.30;;;;;;10492545;28;20192;-21
2021/03/28 15:49:18;;;;;;;5.27;2.77;;;17.50;56.30;;;;;;10491814;28;20227;-21
2021/03/28 15:54:53;;;;;;;5.23;3.00;;;17.40;56.30;;;;;;10492498;28;20188;-21
2021/03/28 16:00:28;;;;;;;5.53;2.97;;;17.40;56.30;;;;;;10493839;28;20222;-19
2021/03/28 16:06:01;;;;;;;4.03;2.43;;;17.40;56.30;;;;;;10492797;28;20192;-20
2021/03/28 16:11:32;;;;;;;4.30;2.73;;;17.40;56.40;;;;;;10496342;28;20212;-18
2021/03/28 16:17:23;;;;;;;4.63;2.47;;;17.40;56.30;;;;;;10496452;28;20196;-22
2021/03/28 16:23:07;;;;;;;4.90;2.90;;;17.40;56.30;;;;;;10484580;28;20893;-21
2021/03/28 16:28:41;;;;;;;5.60;3.10;;;17.40;56.50;;;;;;10493247;28;20418;-19
2021/03/28 16:34:18;;;;;;;3.90;2.40;;;17.60;55.90;;;;;;10466745;28;20471;-19
2021/03/28 16:39:41;;;;;;;3.47;2.53;;;18.10;55.30;;;;;;10495263;28;20220;-20
2021/03/28 16:45:41;;;;;;;6.03;3.10;;;18.50;54.70;;;;;;10462902;28;20673;-20
2021/03/28 16:51:08;;;;;;;10.67;2.80;;;18.80;54.10;;;;;;10471775;28;20219;-18
2021/03/28 16:56:43;;;;;;;7.77;3.00;;;19.00;53.70;;;;;;10497328;28;20196;-21
2021/03/28 17:02:29;;;;;;;5.33;3.00;;;19.20;53.00;;;;;;10496320;28;20208;-21
2021/03/28 17:08:01;;;;;;;6.70;3.33;;;19.40;52.70;;;;;;10497943;28;20267;-17
2021/03/28 17:13:49;;;;;;;4.83;2.83;;;19.50;52.40;;;;;;10460989;28;20604;-21
2021/03/28 17:19:43;;;;;;;8.03;3.40;;;19.60;52.00;;;;;;10455554;28;20715;-16
2021/03/28 17:25:32;;;;;;;5.90;3.17;;;19.80;51.90;;;;;;10468616;28;20546;-21
2021/03/28 17:30:57;;;;;;;9.27;3.03;;;19.80;51.60;;;;;;10455056;28;20244;-22
2021/03/28 17:36:51;;;;;;;6.80;3.10;;;19.80;51.70;;;;;;10460099;28;20700;-22
2021/03/28 17:42:52;;;;;;;6.07;2.83;;;19.80;51.70;;;;;;10482827;28;20185;-19
2021/03/28 17:48:38;;;;;;;6.83;3.03;;;19.80;51.80;;;;;;10455400;28;20217;-20
2021/03/28 17:54:23;;;;;;;6.07;3.20;;;19.80;51.70;;;;;;10454740;28;20214;-16
2021/03/28 17:59:46;;;;;;;5.20;2.80;;;19.90;51.70;;;;;;10454782;28;20256;-21
2021/03/28 18:05:12;;;;;;;4.57;2.77;;;19.60;52.00;;;;;;10453654;28;20622;-20
2021/03/28 18:10:36;;;;;;;4.30;2.70;;;19.40;52.70;;;;;;10454085;28;20669;-21
2021/03/28 18:16:01;;;;;;;4.37;2.57;;;19.20;53.10;;;;;;10464446;28;20572;-20
2021/03/28 18:21:50;;;;;;;7.77;3.00;;;19.10;53.30;;;;;;10463951;28;20854;-20
2021/03/28 18:27:23;;;;;;;5.73;3.00;;;19.20;53.20;;;;;;10448082;28;20199;-21
2021/03/28 18:32:46;;;;;;;3.87;2.67;;;19.20;53.20;;;;;;10456806;28;20223;-20
2021/03/28 18:38:28;;;;;;;5.20;2.70;;;19.20;53.40;;;;;;10468342;28;20687;-21
2021/03/28 18:44:15;;;;;;;5.53;2.60;;;19.20;53.30;;;;;;10478325;28;20191;-20
2021/03/28 18:49:39;;;;;;;7.67;2.50;;;19.30;53.20;;;;;;10491509;28;20219;-18
2021/03/28 18:55:30;;;;;;;4.70;2.70;;;19.30;53.40;;;;;;10485324;28;20201;-21
2021/03/28 19:00:53;;;;;;;5.07;2.30;;;19.30;53.80;;;;;;10493796;28;20216;-19
2021/03/28 19:06:23;;;;;;;4.47;2.60;;;19.30;53.60;;;;;;10463275;28;20204;-19
2021/03/28 19:11:56;;;;;;;4.77;2.30;;;19.30;53.40;;;;;;10490428;28;20230;-18
2021/03/28 19:17:21;;;;;;;7.83;3.00;;;19.40;53.40;;;;;;10493844;28;20212;-17
2021/03/28 19:22:47;;;;;;;7.17;2.57;;;19.40;53.50;;;;;;10485679;28;20739;-19
2021/03/28 19:28:23;;;;;;;6.20;3.00;;;19.40;53.60;;;;;;10450190;28;20741;-19
2021/03/28 19:33:45;;;;;;;6.47;3.00;;;19.30;53.60;;;;;;10451107;28;20213;-20
2021/03/28 19:39:07;;;;;;;4.70;2.30;;;19.30;53.80;;;;;;10485452;28;20231;-17
2021/03/28 19:44:47;;;;;;;5.37;2.77;;;19.30;53.70;;;;;;10492078;28;20200;-20
2021/03/28 19:50:18;;;;;;;2.83;1.90;;;19.20;53.80;;;;;;10492390;28;20299;-19
2021/03/28 19:55:40;;;;;;;3.40;2.30;;;19.30;53.80;;;;;;10492340;28;20204;-23
2021/03/28 20:01:03;;;;;;;3.97;2.33;;;19.20;53.80;;;;;;10492497;28;20223;-21
2021/03/28 20:06:24;;;;;;;3.67;2.30;;;19.30;53.70;;;;;;10492582;28;20197;-23
2021/03/28 20:11:50;;;;;;;3.33;1.90;;;19.30;53.70;;;;;;10486678;28;20246;-17
2021/03/28 20:17:12;;;;;;;2.67;1.70;;;19.30;53.70;;;;;;10491725;28;20197;-20
2021/03/28 20:22:33;;;;;;;6.07;2.50;;;19.30;54.40;;;;;;10484990;28;20203;-20
2021/03/28 20:28:19;;;;;;;3.50;2.30;;;19.30;53.70;;;;;;10451278;28;20220;-20
2021/03/28 20:33:44;;;;;;;3.50;2.03;;;19.30;53.60;;;;;;10455467;28;20283;-21
2021/03/28 20:39:06;;;;;;;3.43;1.70;;;19.30;53.70;;;;;;10457436;28;20217;-16
2021/03/28 20:44:29;;;;;;;6.63;2.07;;;19.30;53.80;;;;;;10481325;28;20677;-20
2021/03/28 20:49:54;;;;;;;5.20;2.03;;;19.20;53.90;;;;;;10491522;28;20220;-20
2021/03/28 20:55:17;;;;;;;3.07;1.80;;;19.20;54.00;;;;;;10495418;28;20670;-16
2021/03/28 21:00:42;;;;;;;4.03;2.00;;;19.10;54.10;;;;;;10491730;28;20221;-20
2021/03/28 21:06:04;;;;;;;3.73;2.20;;;19.00;54.40;;;;;;10496475;28;20207;-21
2021/03/28 21:11:34;;;;;;;2.90;2.13;;;18.90;54.80;;;;;;10497834;28;20707;-18
2021/03/28 21:17:00;;;;;;;4.73;1.87;;;18.80;55.10;;;;;;10498296;28;20556;-20
2021/03/28 21:22:24;;;;;;;4.27;1.80;;;18.70;55.20;;;;;;10497604;28;20185;-21
2021/03/28 21:27:47;;;;;;;3.07;1.90;;;18.70;55.50;;;;;;10495654;28;20270;-20
2021/03/28 21:33:18;;;;;;;2.50;1.40;;;18.60;55.60;;;;;;10497177;28;20350;-20
2021/03/28 21:38:40;;;;;;;2.53;1.60;;;18.60;55.70;;;;;;10465402;28;20205;-21
2021/03/28 21:44:03;;;;;;;2.40;1.60;;;18.50;55.80;;;;;;10483579;28;20189;-21
2021/03/28 21:49:35;;;;;;;2.53;1.53;;;18.50;55.80;;;;;;10495867;28;20591;-19
2021/03/28 21:54:57;;;;;;;3.63;1.67;;;18.50;55.70;;;;;;10495956;28;20192;-19
2021/03/28 22:00:23;;;;;;;2.70;1.80;;;18.50;55.60;;;;;;10504070;22;20716;-23
2021/03/28 22:05:46;;;;;;;3.07;1.77;;;18.50;55.70;;;;;;10451538;28;20208;-23
2021/03/28 22:11:14;;;;;;;3.17;1.70;;;18.40;55.80;;;;;;10454786;28;20217;-22
2021/03/28 22:16:38;;;;;;;1.93;1.27;;;18.40;55.90;;;;;;10455287;28;20692;-22
2021/03/28 22:22:06;;;;;;;2.63;1.53;;;18.40;56.00;;;;;;10454913;28;20213;-23
2021/03/28 22:27:30;;;;;;;2.83;1.33;;;18.30;55.90;;;;;;10455524;28;20569;-23
2021/03/28 22:32:56;;;;;;;2.87;1.60;;;18.30;56.00;;;;;;10453432;28;20221;-20
2021/03/28 22:38:20;;;;;;;2.33;1.60;;;18.40;55.90;;;;;;10427038;28;20193;-22
2021/03/28 22:43:44;;;;;;;2.40;1.63;;;18.30;55.90;;;;;;10462621;28;20193;-21
2021/03/28 22:49:07;;;;;;;1.83;1.30;;;18.30;55.90;;;;;;10486916;28;20247;-22
2021/03/28 22:54:30;;;;;;;2.13;1.30;;;18.30;56.00;;;;;;10494421;28;20212;-25
2021/03/28 22:59:53;;;;;;;1.93;1.40;;;18.30;56.00;;;;;;10426562;28;20316;-20
2021/03/28 23:05:16;;;;;;;2.07;1.30;;;18.30;56.10;;;;;;10411757;28;20205;-23
2021/03/28 23:10:39;;;;;;;1.60;1.30;;;18.20;56.10;;;;;;10410366;28;20692;-22
2021/03/28 23:16:04;;;;;;;2.07;1.40;;;18.20;56.10;;;;;;10410449;28;20198;-25
2021/03/28 23:21:37;;;;;;;2.70;1.40;;;18.30;56.10;;;;;;10410672;28;20218;-24
2021/03/28 23:26:59;;;;;;;2.37;1.40;;;18.30;56.10;;;;;;10410688;28;20192;-23
2021/03/28 23:32:21;;;;;;;2.77;1.43;;;18.20;55.90;;;;;;10410196;28;20636;-22
2021/03/28 23:37:42;;;;;;;1.60;1.20;;;18.20;56.10;;;;;;10432561;28;20201;-22
2021/03/28 23:43:09;;;;;;;2.73;1.47;;;18.20;56.20;;;;;;10471640;28;20212;-23
2021/03/28 23:48:33;;;;;;;2.83;1.00;;;18.20;56.20;;;;;;10492929;28;20608;-22
2021/03/28 23:53:55;;;;;;;2.80;1.23;;;18.20;56.20;;;;;;10479943;28;20635;-25
2021/03/28 23:59:18;;;;;;;2.40;1.33;;;18.10;56.10;;;;;;10409751;28;20233;-21
